sensor_id;sensor_type;location;lat;lon;timestamp;pressure;altitude;pressure_sealevel;temperature;humidity
55044;BME280;54902;50.420;18.854;2023-03-22T00:00:01;101250.77;;;8.72;72.82
55044;BME280;54902;50.420;18.854;2023-03-22T00:00:36;101248.06;;;8.72;72.82
55044;BME280;54902;50.420;18.854;2023-03-22T00:01:12;101243.57;;;8.71;72.80
55044;BME280;54902;50.420;18.854;2023-03-22T00:01:44;101239.13;;;8.70;72.81
55044;BME280;54902;50.420;18.854;2023-03-22T00:02:15;101232.80;;;8.70;72.81
55044;BME280;54902;50.420;18.854;2023-03-22T00:02:46;101243.80;;;8.68;72.82
55044;BME280;54902;50.420;18.854;2023-03-22T00:03:17;101246.52;;;8.68;72.82
55044;BME280;54902;50.420;18.854;2023-03-22T00:03:49;101243.05;;;8.67;72.82
55044;BME280;54902;50.420;18.854;2023-03-22T00:04:22;101238.58;;;8.66;72.84
55044;BME280;54902;50.420;18.854;2023-03-22T00:04:53;101241.30;;;8.66;72.84
55044;BME280;54902;50.420;18.854;2023-03-22T00:05:24;101234.95;;;8.65;72.83
55044;BME280;54902;50.420;18.854;2023-03-22T00:05:56;101238.69;;;8.64;72.84
55044;BME280;54902;50.420;18.854;2023-03-22T00:06:28;101243.34;;;8.62;72.82
55044;BME280;54902;50.420;18.854;2023-03-22T00:06:59;101236.04;;;8.63;72.82
55044;BME280;54902;50.420;18.854;2023-03-22T00:07:30;101231.59;;;8.62;72.81
55044;BME280;54902;50.420;18.854;2023-03-22T00:08:01;101235.28;;;8.61;72.80
55044;BME280;54902;50.420;18.854;2023-03-22T00:08:36;101238.01;;;8.61;72.81
55044;BME280;54902;50.420;18.854;2023-03-22T00:09:07;101236.25;;;8.60;72.79
55044;BME280;54902;50.420;18.854;2023-03-22T00:09:38;101237.23;;;8.59;72.78
55044;BME280;54902;50.420;18.854;2023-03-22T00:10:10;101237.33;;;8.57;72.76
55044;BME280;54902;50.420;18.854;2023-03-22T00:10:41;101235.61;;;8.56;72.75
55044;BME280;54902;50.420;18.854;2023-03-22T00:11:12;101227.52;;;8.55;72.74
55044;BME280;54902;50.420;18.854;2023-03-22T00:11:43;101230.25;;;8.55;72.72
55044;BME280;54902;50.420;18.854;2023-03-22T00:12:13;101230.35;;;8.53;72.71
55044;BME280;54902;50.420;18.854;2023-03-22T00:12:44;101226.20;;;8.48;72.75
55044;BME280;54902;50.420;18.854;2023-03-22T00:13:16;101231.43;;;8.51;72.68
55044;BME280;54902;50.420;18.854;2023-03-22T00:13:47;101219.80;;;8.49;72.67
55044;BME280;54902;50.420;18.854;2023-03-22T00:14:18;101236.12;;;8.49;72.65
55044;BME280;54902;50.420;18.854;2023-03-22T00:14:49;101234.48;;;8.46;72.63
55044;BME280;54902;50.420;18.854;2023-03-22T00:15:20;101226.42;;;8.45;72.63
55044;BME280;54902;50.420;18.854;2023-03-22T00:15:54;101232.84;;;8.44;72.63
55044;BME280;54902;50.420;18.854;2023-03-22T00:16:25;101226.64;;;8.42;72.63
55044;BME280;54902;50.420;18.854;2023-03-22T00:16:56;101222.16;;;8.41;72.63
55044;BME280;54902;50.420;18.854;2023-03-22T00:17:27;101232.27;;;8.39;72.62
55044;BME280;54902;50.420;18.854;2023-03-22T00:18:00;101223.35;;;8.37;72.61
55044;BME280;54902;50.420;18.854;2023-03-22T00:18:32;101223.45;;;8.35;72.61
55044;BME280;54902;50.420;18.854;2023-03-22T00:19:03;101223.53;;;8.34;72.60
55044;BME280;54902;50.420;18.854;2023-03-22T00:19:34;101230.09;;;8.31;72.61
55044;BME280;54902;50.420;18.854;2023-03-22T00:20:05;101228.34;;;8.30;72.64
55044;BME280;54902;50.420;18.854;2023-03-22T00:20:37;101227.66;;;8.27;72.62
55044;BME280;54902;50.420;18.854;2023-03-22T00:21:11;101228.62;;;8.26;72.63
55044;BME280;54902;50.420;18.854;2023-03-22T00:21:43;101224.18;;;8.25;72.63
55044;BME280;54902;50.420;18.854;2023-03-22T00:22:14;101220.68;;;8.23;72.60
55044;BME280;54902;50.420;18.854;2023-03-22T00:22:46;101224.37;;;8.22;72.60
55044;BME280;54902;50.420;18.854;2023-03-22T00:23:17;101230.02;;;8.19;72.62
55044;BME280;54902;50.420;18.854;2023-03-22T00:23:48;101231.88;;;8.18;72.62
55044;BME280;54902;50.420;18.854;2023-03-22T00:24:20;101222.94;;;8.16;72.63
55044;BME280;54902;50.420;18.854;2023-03-22T00:24:51;101228.48;;;8.15;72.61
55044;BME280;54902;50.420;18.854;2023-03-22T00:25:22;101230.45;;;8.13;72.62
55044;BME280;54902;50.420;18.854;2023-03-22T00:25:53;101225.94;;;8.12;72.61
55044;BME280;54902;50.420;18.854;2023-03-22T00:26:24;101232.46;;;8.09;72.64
55044;BME280;54902;50.420;18.854;2023-03-22T00:26:55;101218.06;;;8.08;72.63
55044;BME280;54902;50.420;18.854;2023-03-22T00:27:28;101222.65;;;8.07;72.63
55044;BME280;54902;50.420;18.854;2023-03-22T00:27:58;101221.86;;;8.05;72.64
55044;BME280;54902;50.420;18.854;2023-03-22T00:28:30;101224.69;;;8.04;72.64
55044;BME280;54902;50.420;18.854;2023-03-22T00:29:00;101226.65;;;8.02;72.65
55044;BME280;54902;50.420;18.854;2023-03-22T00:29:31;101221.21;;;8.02;72.66
55044;BME280;54902;50.420;18.854;2023-03-22T00:30:04;101219.57;;;7.99;72.68
55044;BME280;54902;50.420;18.854;2023-03-22T00:30:35;101225.12;;;7.98;72.69
55044;BME280;54902;50.420;18.854;2023-03-22T00:31:06;101224.22;;;7.97;72.71
55044;BME280;54902;50.420;18.854;2023-03-22T00:31:37;101217.92;;;7.97;72.71
55044;BME280;54902;50.420;18.854;2023-03-22T00:32:08;101221.60;;;7.96;72.72
55044;BME280;54902;50.420;18.854;2023-03-22T00:32:40;101219.85;;;7.95;72.72
55044;BME280;54902;50.420;18.854;2023-03-22T00:33:12;101222.56;;;7.95;72.72
55044;BME280;54902;50.420;18.854;2023-03-22T00:33:42;101218.23;;;7.92;72.72
55044;BME280;54902;50.420;18.854;2023-03-22T00:34:13;101217.34;;;7.92;72.73
55044;BME280;54902;50.420;18.854;2023-03-22T00:34:45;101212.01;;;7.90;72.73
55044;BME280;54902;50.420;18.854;2023-03-22T00:35:16;101224.76;;;7.90;72.74
55044;BME280;54902;50.420;18.854;2023-03-22T00:35:50;101215.70;;;7.89;72.75
55044;BME280;54902;50.420;18.854;2023-03-22T00:36:22;101218.42;;;7.89;72.75
55044;BME280;54902;50.420;18.854;2023-03-22T00:36:53;101223.86;;;7.89;72.76
55044;BME280;54902;50.420;18.854;2023-03-22T00:37:25;101220.27;;;7.89;72.78
55044;BME280;54902;50.420;18.854;2023-03-22T00:38:02;101223.96;;;7.88;72.80
55044;BME280;54902;50.420;18.854;2023-03-22T00:38:35;101210.47;;;7.86;72.80
55044;BME280;54902;50.420;18.854;2023-03-22T00:39:08;101218.63;;;7.86;72.79
55044;BME280;54902;50.420;18.854;2023-03-22T00:39:38;101227.65;;;7.87;72.80
55044;BME280;54902;50.420;18.854;2023-03-22T00:40:11;101230.48;;;7.85;72.80
55044;BME280;54902;50.420;18.854;2023-03-22T00:40:42;101224.17;;;7.85;72.79
55044;BME280;54902;50.420;18.854;2023-03-22T00:41:16;101217.84;;;7.84;72.78
55044;BME280;54902;50.420;18.854;2023-03-22T00:41:47;101222.42;;;7.84;72.77
55044;BME280;54902;50.420;18.854;2023-03-22T00:42:18;101218.05;;;7.81;72.77
55044;BME280;54902;50.420;18.854;2023-03-22T00:42:49;101223.48;;;7.81;72.75
55044;BME280;54902;50.420;18.854;2023-03-22T00:43:21;101216.29;;;7.80;72.75
55044;BME280;54902;50.420;18.854;2023-03-22T00:43:52;101214.58;;;7.79;72.74
55044;BME280;54902;50.420;18.854;2023-03-22T00:44:23;101211.95;;;7.78;72.72
55044;BME280;54902;50.420;18.854;2023-03-22T00:44:53;101215.64;;;7.77;72.76
55044;BME280;54902;50.420;18.854;2023-03-22T00:45:24;101215.75;;;7.75;72.75
55044;BME280;54902;50.420;18.854;2023-03-22T00:45:56;101216.72;;;7.74;72.77
55044;BME280;54902;50.420;18.854;2023-03-22T00:46:27;101213.10;;;7.74;72.76
55044;BME280;54902;50.420;18.854;2023-03-22T00:46:58;101202.75;;;7.66;72.76
55044;BME280;54902;50.420;18.854;2023-03-22T00:47:29;101204.30;;;7.70;72.79
55044;BME280;54902;50.420;18.854;2023-03-22T00:48:00;101208.84;;;7.70;72.74
55044;BME280;54902;50.420;18.854;2023-03-22T00:48:31;101217.09;;;7.68;72.79
55044;BME280;54902;50.420;18.854;2023-03-22T00:49:02;101219.07;;;7.66;72.80
55044;BME280;54902;50.420;18.854;2023-03-22T00:49:33;101220.03;;;7.65;72.82
55044;BME280;54902;50.420;18.854;2023-03-22T00:50:07;101216.45;;;7.65;72.85
55044;BME280;54902;50.420;18.854;2023-03-22T00:50:38;101213.05;;;7.61;72.85
55044;BME280;54902;50.420;18.854;2023-03-22T00:51:11;101215.76;;;7.61;72.84
55044;BME280;54902;50.420;18.854;2023-03-22T00:51:42;101206.82;;;7.59;72.87
55044;BME280;54902;50.420;18.854;2023-03-22T00:52:13;101216.84;;;7.59;72.84
55044;BME280;54902;50.420;18.854;2023-03-22T00:52:44;101222.28;;;7.59;72.86
55044;BME280;54902;50.420;18.854;2023-03-22T00:53:15;101209.64;;;7.58;72.85
55044;BME280;54902;50.420;18.854;2023-03-22T00:53:46;101206.06;;;7.57;72.85
55044;BME280;54902;50.420;18.854;2023-03-22T00:54:21;101207.03;;;7.56;72.86
55044;BME280;54902;50.420;18.854;2023-03-22T00:54:52;101205.27;;;7.55;72.88
55044;BME280;54902;50.420;18.854;2023-03-22T00:55:23;101216.14;;;7.55;72.91
55044;BME280;54902;50.420;18.854;2023-03-22T00:55:55;101209.85;;;7.55;72.88
55044;BME280;54902;50.420;18.854;2023-03-22T00:56:26;101219.87;;;7.54;72.88
55044;BME280;54902;50.420;18.854;2023-03-22T00:56:58;101213.53;;;7.54;72.88
55044;BME280;54902;50.420;18.854;2023-03-22T00:57:29;101212.68;;;7.53;72.90
55044;BME280;54902;50.420;18.854;2023-03-22T00:58:00;101211.80;;;7.53;72.88
55044;BME280;54902;50.420;18.854;2023-03-22T00:58:31;101210.92;;;7.52;72.87
55044;BME280;54902;50.420;18.854;2023-03-22T00:59:03;101205.48;;;7.52;72.88
55044;BME280;54902;50.420;18.854;2023-03-22T00:59:34;101210.05;;;7.52;72.88
55044;BME280;54902;50.420;18.854;2023-03-22T01:00:10;101203.93;;;7.49;72.76
55044;BME280;54902;50.420;18.854;2023-03-22T01:00:43;101208.30;;;7.51;72.85
55044;BME280;54902;50.420;18.854;2023-03-22T01:01:14;101206.55;;;7.50;72.83
55044;BME280;54902;50.420;18.854;2023-03-22T01:01:45;101204.83;;;7.49;72.83
55044;BME280;54902;50.420;18.854;2023-03-22T01:02:16;101198.50;;;7.49;72.82
55044;BME280;54902;50.420;18.854;2023-03-22T01:02:47;101194.34;;;7.43;72.64
55044;BME280;54902;50.420;18.854;2023-03-22T01:03:18;101205.00;;;7.46;72.79
55044;BME280;54902;50.420;18.854;2023-03-22T01:03:51;101196.95;;;7.45;72.79
55044;BME280;54902;50.420;18.854;2023-03-22T01:04:22;101204.25;;;7.44;72.79
55044;BME280;54902;50.420;18.854;2023-03-22T01:04:55;101189.76;;;7.44;72.80
55044;BME280;54902;50.420;18.854;2023-03-22T01:05:27;101196.20;;;7.43;72.80
55044;BME280;54902;50.420;18.854;2023-03-22T01:05:59;101194.44;;;7.42;72.80
55044;BME280;54902;50.420;18.854;2023-03-22T01:06:31;101192.79;;;7.39;72.81
55044;BME280;54902;50.420;18.854;2023-03-22T01:07:03;101192.79;;;7.39;72.82
55044;BME280;54902;50.420;18.854;2023-03-22T01:07:37;101195.61;;;7.38;72.81
55044;BME280;54902;50.420;18.854;2023-03-22T01:08:11;101191.99;;;7.37;72.82
55044;BME280;54902;50.420;18.854;2023-03-22T01:08:44;101191.14;;;7.37;72.84
55044;BME280;54902;50.420;18.854;2023-03-22T01:09:15;101192.09;;;7.36;72.84
55044;BME280;54902;50.420;18.854;2023-03-22T01:09:47;101193.06;;;7.35;72.84
55044;BME280;54902;50.420;18.854;2023-03-22T01:10:18;101180.48;;;7.34;72.83
55044;BME280;54902;50.420;18.854;2023-03-22T01:10:49;101193.06;;;7.35;72.83
55044;BME280;54902;50.420;18.854;2023-03-22T01:11:21;101189.59;;;7.33;72.85
55044;BME280;54902;50.420;18.854;2023-03-22T01:11:52;101186.01;;;7.32;72.87
55044;BME280;54902;50.420;18.854;2023-03-22T01:12:22;101190.55;;;7.32;72.90
55044;BME280;54902;50.420;18.854;2023-03-22T01:12:53;101190.55;;;7.32;72.90
55044;BME280;54902;50.420;18.854;2023-03-22T01:13:26;101192.41;;;7.31;72.91
55044;BME280;54902;50.420;18.854;2023-03-22T01:13:58;101189.70;;;7.31;72.93
55044;BME280;54902;50.420;18.854;2023-03-22T01:14:29;101186.98;;;7.31;72.94
55044;BME280;54902;50.420;18.854;2023-03-22T01:15:02;101183.36;;;7.31;72.95
55044;BME280;54902;50.420;18.854;2023-03-22T01:15:33;101192.41;;;7.31;72.97
55044;BME280;54902;50.420;18.854;2023-03-22T01:16:06;101194.23;;;7.31;72.99
55044;BME280;54902;50.420;18.854;2023-03-22T01:16:37;101193.38;;;7.30;73.01
55044;BME280;54902;50.420;18.854;2023-03-22T01:17:08;101186.08;;;7.31;73.01
55044;BME280;54902;50.420;18.854;2023-03-22T01:17:39;101188.80;;;7.31;73.03
55044;BME280;54902;50.420;18.854;2023-03-22T01:18:10;101188.80;;;7.31;73.06
55044;BME280;54902;50.420;18.854;2023-03-22T01:18:41;101195.13;;;7.31;73.06
55044;BME280;54902;50.420;18.854;2023-03-22T01:19:12;101195.13;;;7.31;73.05
55044;BME280;54902;50.420;18.854;2023-03-22T01:19:44;101195.13;;;7.31;73.07
55044;BME280;54902;50.420;18.854;2023-03-22T01:20:15;101183.36;;;7.31;73.01
55044;BME280;54902;50.420;18.854;2023-03-22T01:20:46;101187.95;;;7.30;73.06
55044;BME280;54902;50.420;18.854;2023-03-22T01:21:17;101188.80;;;7.31;73.06
55044;BME280;54902;50.420;18.854;2023-03-22T01:21:48;101184.26;;;7.31;73.08
55044;BME280;54902;50.420;18.854;2023-03-22T01:22:20;101186.88;;;7.33;73.06
55044;BME280;54902;50.420;18.854;2023-03-22T01:22:51;101190.55;;;7.32;73.08
55044;BME280;54902;50.420;18.854;2023-03-22T01:23:22;101185.12;;;7.32;73.09
55044;BME280;54902;50.420;18.854;2023-03-22T01:23:53;101191.45;;;7.32;73.09
55044;BME280;54902;50.420;18.854;2023-03-22T01:24:24;101190.55;;;7.32;73.08
55044;BME280;54902;50.420;18.854;2023-03-22T01:24:55;101184.16;;;7.33;73.07
55044;BME280;54902;50.420;18.854;2023-03-22T01:25:26;101183.19;;;7.34;73.09
55044;BME280;54902;50.420;18.854;2023-03-22T01:25:57;101192.31;;;7.33;73.08
55044;BME280;54902;50.420;18.854;2023-03-22T01:26:27;101186.88;;;7.33;73.08
55044;BME280;54902;50.420;18.854;2023-03-22T01:26:58;101178.72;;;7.33;73.10
55044;BME280;54902;50.420;18.854;2023-03-22T01:27:30;101187.73;;;7.33;73.12
55044;BME280;54902;50.420;18.854;2023-03-22T01:28:01;101187.73;;;7.33;73.14
55044;BME280;54902;50.420;18.854;2023-03-22T01:28:32;101186.77;;;7.34;73.15
55044;BME280;54902;50.420;18.854;2023-03-22T01:29:03;101177.76;;;7.34;73.14
55044;BME280;54902;50.420;18.854;2023-03-22T01:29:34;101179.48;;;7.35;73.17
55044;BME280;54902;50.420;18.854;2023-03-22T01:30:06;101177.76;;;7.34;73.18
55044;BME280;54902;50.420;18.854;2023-03-22T01:30:38;101177.76;;;7.34;73.16
55044;BME280;54902;50.420;18.854;2023-03-22T01:31:10;101193.17;;;7.33;73.16
55044;BME280;54902;50.420;18.854;2023-03-22T01:31:42;101190.35;;;7.35;73.16
55044;BME280;54902;50.420;18.854;2023-03-22T01:32:13;101179.58;;;7.33;73.18
55044;BME280;54902;50.420;18.854;2023-03-22T01:32:44;101184.05;;;7.34;73.20
55044;BME280;54902;50.420;18.854;2023-03-22T01:33:15;101192.09;;;7.36;73.17
55044;BME280;54902;50.420;18.854;2023-03-22T01:33:46;101178.62;;;7.34;73.16
55044;BME280;54902;50.420;18.854;2023-03-22T01:34:17;101185.91;;;7.34;73.16
55044;BME280;54902;50.420;18.854;2023-03-22T01:34:48;101180.48;;;7.34;73.18
55044;BME280;54902;50.420;18.854;2023-03-22T01:35:21;101177.76;;;7.34;73.18
55044;BME280;54902;50.420;18.854;2023-03-22T01:35:52;101179.48;;;7.35;73.17
55044;BME280;54902;50.420;18.854;2023-03-22T01:36:23;101177.76;;;7.34;73.17
55044;BME280;54902;50.420;18.854;2023-03-22T01:36:54;101179.48;;;7.35;73.19
55044;BME280;54902;50.420;18.854;2023-03-22T01:37:25;101178.62;;;7.34;73.18
55044;BME280;54902;50.420;18.854;2023-03-22T01:37:57;101179.48;;;7.35;73.18
55044;BME280;54902;50.420;18.854;2023-03-22T01:38:28;101177.76;;;7.34;73.19
55044;BME280;54902;50.420;18.854;2023-03-22T01:38:59;101180.38;;;7.35;73.19
55044;BME280;54902;50.420;18.854;2023-03-22T01:39:30;101172.33;;;7.34;73.19
55044;BME280;54902;50.420;18.854;2023-03-22T01:40:01;101181.33;;;7.34;73.20
55044;BME280;54902;50.420;18.854;2023-03-22T01:40:34;101171.42;;;7.33;73.19
55044;BME280;54902;50.420;18.854;2023-03-22T01:41:06;101172.33;;;7.34;73.18
55044;BME280;54902;50.420;18.854;2023-03-22T01:41:37;101175.14;;;7.32;73.17
55044;BME280;54902;50.420;18.854;2023-03-22T01:42:13;101175.14;;;7.32;73.17
55044;BME280;54902;50.420;18.854;2023-03-22T01:42:45;101160.66;;;7.32;73.15
55044;BME280;54902;50.420;18.854;2023-03-22T01:43:16;101163.38;;;7.32;73.14
55044;BME280;54902;50.420;18.854;2023-03-22T01:44:32;101171.54;;;7.32;73.13
55044;BME280;54902;50.420;18.854;2023-03-22T01:45:52;101157.19;;;7.30;73.11
55044;BME280;54902;50.420;18.854;2023-03-22T01:46:23;101158.16;;;7.29;73.08
55044;BME280;54902;50.420;18.854;2023-03-22T01:46:55;101163.58;;;7.29;73.07
55044;BME280;54902;50.420;18.854;2023-03-22T01:47:26;101161.84;;;7.28;73.04
55044;BME280;54902;50.420;18.854;2023-03-22T01:48:03;101160.09;;;7.27;73.02
55044;BME280;54902;50.420;18.854;2023-03-22T01:48:42;101155.65;;;7.26;73.02
55044;BME280;54902;50.420;18.854;2023-03-22T01:49:27;101159.33;;;7.25;72.99
55044;BME280;54902;50.420;18.854;2023-03-22T01:50:01;101154.85;;;7.24;72.96
55044;BME280;54902;50.420;18.854;2023-03-22T01:50:32;101153.09;;;7.23;72.96
55044;BME280;54902;50.420;18.854;2023-03-22T01:51:10;101150.38;;;7.23;72.96
55044;BME280;54902;50.420;18.854;2023-03-22T01:51:44;101150.48;;;7.21;72.94
55044;BME280;54902;50.420;18.854;2023-03-22T01:52:16;101150.48;;;7.21;72.93
55044;BME280;54902;50.420;18.854;2023-03-22T01:52:48;101153.30;;;7.20;72.94
55044;BME280;54902;50.420;18.854;2023-03-22T01:53:22;101152.55;;;7.18;72.92
55044;BME280;54902;50.420;18.854;2023-03-22T01:53:58;101152.55;;;7.18;72.94
55044;BME280;54902;50.420;18.854;2023-03-22T01:54:36;101150.79;;;7.17;72.93
55044;BME280;54902;50.420;18.854;2023-03-22T01:55:12;101156.23;;;7.17;72.95
55044;BME280;54902;50.420;18.854;2023-03-22T01:55:44;101156.33;;;7.15;72.96
55044;BME280;54902;50.420;18.854;2023-03-22T01:56:19;101152.72;;;7.15;72.97
55044;BME280;54902;50.420;18.854;2023-03-22T01:56:52;101153.71;;;7.14;72.97
55044;BME280;54902;50.420;18.854;2023-03-22T01:57:23;101156.50;;;7.12;72.97
55044;BME280;54902;50.420;18.854;2023-03-22T01:57:55;101150.30;;;7.10;72.98
55044;BME280;54902;50.420;18.854;2023-03-22T01:58:26;101155.65;;;7.12;72.99
55044;BME280;54902;50.420;18.854;2023-03-22T01:58:57;101143.02;;;7.11;73.00
55044;BME280;54902;50.420;18.854;2023-03-22T01:59:30;101152.91;;;7.12;72.98
55044;BME280;54902;50.420;18.854;2023-03-22T02:00:01;101146.70;;;7.10;73.00
55044;BME280;54902;50.420;18.854;2023-03-22T02:00:38;101154.84;;;7.10;73.00
55044;BME280;54902;50.420;18.854;2023-03-22T02:01:09;101157.56;;;7.10;73.01
55044;BME280;54902;50.420;18.854;2023-03-22T02:01:41;101153.89;;;7.11;73.02
55044;BME280;54902;50.420;18.854;2023-03-22T02:02:17;101155.84;;;7.09;73.02
55044;BME280;54902;50.420;18.854;2023-03-22T02:02:54;101149.52;;;7.08;73.02
55044;BME280;54902;50.420;18.854;2023-03-22T02:03:35;101159.53;;;7.08;73.05
55044;BME280;54902;50.420;18.854;2023-03-22T02:04:10;101149.52;;;7.08;73.08
55044;BME280;54902;50.420;18.854;2023-03-22T02:04:46;101152.34;;;7.07;73.06
55044;BME280;54902;50.420;18.854;2023-03-22T02:05:20;101152.34;;;7.07;73.08
55044;BME280;54902;50.420;18.854;2023-03-22T02:05:54;101153.23;;;7.07;73.11
55044;BME280;54902;50.420;18.854;2023-03-22T02:06:26;101145.15;;;7.06;73.11
55044;BME280;54902;50.420;18.854;2023-03-22T02:07:06;101147.02;;;7.05;73.14
55044;BME280;54902;50.420;18.854;2023-03-22T02:07:41;101146.90;;;7.07;73.13
55044;BME280;54902;50.420;18.854;2023-03-22T02:08:12;101145.15;;;7.06;73.11
55044;BME280;54902;50.420;18.854;2023-03-22T02:08:44;101145.15;;;7.06;73.11
55044;BME280;54902;50.420;18.854;2023-03-22T02:09:15;101137.99;;;7.05;73.12
55044;BME280;54902;50.420;18.854;2023-03-22T02:09:52;101143.43;;;7.05;73.13
55044;BME280;54902;50.420;18.854;2023-03-22T02:10:25;101139.82;;;7.04;73.13
55044;BME280;54902;50.420;18.854;2023-03-22T02:10:56;101133.52;;;7.04;73.12
55044;BME280;54902;50.420;18.854;2023-03-22T02:13:51;101124.52;;;7.03;73.13
55044;BME280;54902;50.420;18.854;2023-03-22T02:14:34;101129.06;;;7.03;73.14
55044;BME280;54902;50.420;18.854;2023-03-22T02:17:25;101121.88;;;7.02;73.18
55044;BME280;54902;50.420;18.854;2023-03-22T02:18:12;101129.06;;;7.03;73.18
55044;BME280;54902;50.420;18.854;2023-03-22T02:18:58;101126.34;;;7.03;73.22
55044;BME280;54902;50.420;18.854;2023-03-22T02:19:46;101130.91;;;7.02;73.22
55044;BME280;54902;50.420;18.854;2023-03-22T02:29:06;101128.09;;;7.04;73.27
55044;BME280;54902;50.420;18.854;2023-03-22T02:35:40;101117.98;;;7.06;73.32
55044;BME280;54902;50.420;18.854;2023-03-22T02:37:03;101118.88;;;7.06;73.32
55044;BME280;54902;50.420;18.854;2023-03-22T02:39:56;101120.63;;;7.07;73.34
55044;BME280;54902;50.420;18.854;2023-03-22T02:40:37;101123.34;;;7.07;73.34
55044;BME280;54902;50.420;18.854;2023-03-22T02:41:19;101125.07;;;7.08;73.33
55044;BME280;54902;50.420;18.854;2023-03-22T02:44:21;101114.31;;;7.07;73.32
55044;BME280;54902;50.420;18.854;2023-03-22T02:45:00;101116.05;;;7.08;73.33
55044;BME280;54902;50.420;18.854;2023-03-22T02:45:51;101113.34;;;7.08;73.33
55044;BME280;54902;50.420;18.854;2023-03-22T02:46:22;101111.48;;;7.08;73.33
55044;BME280;54902;50.420;18.854;2023-03-22T02:47:44;101116.05;;;7.08;73.34
55044;BME280;54902;50.420;18.854;2023-03-22T02:48:26;101116.05;;;7.08;73.34
55044;BME280;54902;50.420;18.854;2023-03-22T02:50:40;101113.34;;;7.08;73.36
55044;BME280;54902;50.420;18.854;2023-03-22T02:51:12;101107.91;;;7.08;73.36
55044;BME280;54902;50.420;18.854;2023-03-22T02:51:49;101099.77;;;7.08;73.35
55044;BME280;54902;50.420;18.854;2023-03-22T02:54:41;101100.63;;;7.08;73.39
55044;BME280;54902;50.420;18.854;2023-03-22T02:56:04;101098.01;;;7.07;73.40
55044;BME280;54902;50.420;18.854;2023-03-22T02:56:45;101098.90;;;7.07;73.39
55044;BME280;54902;50.420;18.854;2023-03-22T02:57:27;101104.34;;;7.07;73.40
55044;BME280;54902;50.420;18.854;2023-03-22T02:58:08;101093.65;;;7.04;73.48
55044;BME280;54902;50.420;18.854;2023-03-22T02:58:43;101107.91;;;7.08;73.43
55044;BME280;54902;50.420;18.854;2023-03-22T02:59:16;101106.16;;;7.07;73.42
55044;BME280;54902;50.420;18.854;2023-03-22T02:59:52;101105.20;;;7.08;73.42
55044;BME280;54902;50.420;18.854;2023-03-22T03:00:25;101108.88;;;7.07;73.44
55044;BME280;54902;50.420;18.854;2023-03-22T03:01:01;101099.77;;;7.08;73.47
55044;BME280;54902;50.420;18.854;2023-03-22T03:02:21;101107.05;;;7.07;73.49
55044;BME280;54902;50.420;18.854;2023-03-22T03:02:56;101098.01;;;7.07;73.49
55044;BME280;54902;50.420;18.854;2023-03-22T03:03:30;101100.73;;;7.07;73.52
55044;BME280;54902;50.420;18.854;2023-03-22T03:04:06;101116.05;;;7.08;73.51
55044;BME280;54902;50.420;18.854;2023-03-22T03:04:44;101107.91;;;7.08;73.54
55044;BME280;54902;50.420;18.854;2023-03-22T03:05:17;101099.77;;;7.08;73.54
55044;BME280;54902;50.420;18.854;2023-03-22T03:05:55;101106.95;;;7.09;73.57
55044;BME280;54902;50.420;18.854;2023-03-22T03:06:32;101110.53;;;7.09;73.57
55044;BME280;54902;50.420;18.854;2023-03-22T03:07:11;101108.66;;;7.10;73.57
55044;BME280;54902;50.420;18.854;2023-03-22T03:07:48;101110.53;;;7.09;73.59
55044;BME280;54902;50.420;18.854;2023-03-22T03:08:21;101097.81;;;7.10;73.59
55044;BME280;54902;50.420;18.854;2023-03-22T03:08:54;101111.38;;;7.10;73.58
55044;BME280;54902;50.420;18.854;2023-03-22T03:09:28;101102.27;;;7.11;73.62
55044;BME280;54902;50.420;18.854;2023-03-22T03:09:59;101116.65;;;7.13;73.64
55044;BME280;54902;50.420;18.854;2023-03-22T03:10:31;101102.16;;;7.12;73.63
55044;BME280;54902;50.420;18.854;2023-03-22T03:11:03;101102.16;;;7.12;73.65
55044;BME280;54902;50.420;18.854;2023-03-22T03:11:34;101109.36;;;7.13;73.64
55044;BME280;54902;50.420;18.854;2023-03-22T03:12:18;101110.25;;;7.14;73.63
55044;BME280;54902;50.420;18.854;2023-03-22T03:12:49;101099.39;;;7.14;73.64
55044;BME280;54902;50.420;18.854;2023-03-22T03:13:21;101103.81;;;7.15;73.64
55044;BME280;54902;50.420;18.854;2023-03-22T03:13:52;101102.95;;;7.14;73.64
55044;BME280;54902;50.420;18.854;2023-03-22T03:14:31;101107.43;;;7.15;73.65
55044;BME280;54902;50.420;18.854;2023-03-22T03:15:25;101103.71;;;7.16;73.64
55044;BME280;54902;50.420;18.854;2023-03-22T03:15:51;101098.27;;;7.16;73.66
55044;BME280;54902;50.420;18.854;2023-03-22T03:16:28;101102.86;;;7.16;73.68
55044;BME280;54902;50.420;18.854;2023-03-22T03:19:24;101116.23;;;7.19;73.72
55044;BME280;54902;50.420;18.854;2023-03-22T03:20:07;101114.50;;;7.18;73.70
55044;BME280;54902;50.420;18.854;2023-03-22T03:21:35;101111.79;;;7.18;73.73
55044;BME280;54902;50.420;18.854;2023-03-22T03:23:38;101118.95;;;7.19;73.74
55044;BME280;54902;50.420;18.854;2023-03-22T03:27:20;101120.70;;;7.20;73.81
55044;BME280;54902;50.420;18.854;2023-03-22T03:28:00;101120.70;;;7.20;73.82
55044;BME280;54902;50.420;18.854;2023-03-22T03:29:21;101117.12;;;7.19;73.81
55044;BME280;54902;50.420;18.854;2023-03-22T03:30:03;101126.99;;;7.20;73.82
55044;BME280;54902;50.420;18.854;2023-03-22T03:30:48;101129.71;;;7.20;73.82
55044;BME280;54902;50.420;18.854;2023-03-22T03:32:59;101121.55;;;7.20;73.86
55044;BME280;54902;50.420;18.854;2023-03-22T03:33:35;101120.70;;;7.20;73.85
55044;BME280;54902;50.420;18.854;2023-03-22T03:34:58;101123.31;;;7.21;73.88
55044;BME280;54902;50.420;18.854;2023-03-22T03:35:40;101117.88;;;7.21;73.89
55044;BME280;54902;50.420;18.854;2023-03-22T03:36:15;101123.31;;;7.21;73.89
55044;BME280;54902;50.420;18.854;2023-03-22T03:37:03;101120.49;;;7.23;73.92